Time;durP1;ratioP1;P1;durP2;ratioP2;P2;SDS_P1;SDS_P2;PMS_P1;PMS_P2;Temp;Humidity;BMP_temperature;BMP_pressure;BME280_temperature;BME280_humidity;BME280_pressure;Samples;Min_cycle;Max_cycle;Signal;HPM_P1;HPM_P2
2023/03/29 00:01:56;;;;;;;8.75;4.97;;;5.80;99.90;;;;;;5003602;28;20056;-83
2023/03/29 00:04:26;;;;;;;14.65;5.35;;;5.70;99.90;;;;;;5015708;28;20044;-83
2023/03/29 00:06:55;;;;;;;11.40;5.38;;;5.70;99.90;;;;;;5020279;28;20061;-84
2023/03/29 00:09:25;;;;;;;10.07;5.22;;;5.80;99.90;;;;;;5018192;28;20052;-84
2023/03/29 00:11:54;;;;;;;11.68;5.60;;;5.80;99.90;;;;;;5011208;28;20128;-84
2023/03/29 00:14:19;;;;;;;8.27;4.63;;;5.70;99.90;;;;;;5019375;28;20041;-84
2023/03/29 00:16:45;;;;;;;11.85;5.35;;;5.80;99.90;;;;;;5021676;28;20037;-84
2023/03/29 00:19:11;;;;;;;8.98;5.00;;;5.80;99.90;;;;;;5029160;28;20119;-83
2023/03/29 00:21:36;;;;;;;8.77;4.82;;;5.80;99.90;;;;;;5001508;28;20084;-83
2023/03/29 00:24:02;;;;;;;8.38;5.07;;;5.80;99.90;;;;;;5029358;28;20044;-83
2023/03/29 00:26:28;;;;;;;8.60;4.20;;;5.80;99.90;;;;;;5016320;28;20067;-85
2023/03/29 00:28:53;;;;;;;8.40;4.22;;;5.80;99.90;;;;;;5015153;28;20068;-84
2023/03/29 00:31:20;;;;;;;7.18;4.05;;;5.70;99.90;;;;;;5021737;28;20048;-84
2023/03/29 00:33:45;;;;;;;7.45;4.63;;;5.80;99.90;;;;;;5020776;28;20041;-83
2023/03/29 00:36:11;;;;;;;9.25;4.55;;;5.80;99.90;;;;;;5019063;28;20095;-83
2023/03/29 00:38:38;;;;;;;8.93;3.95;;;5.80;99.90;;;;;;5011500;28;20045;-83
2023/03/29 00:41:05;;;;;;;10.13;4.55;;;5.80;99.90;;;;;;5011995;28;20061;-82
2023/03/29 00:43:49;;;;;;;9.05;4.88;;;5.80;99.90;;;;;;5027549;28;20066;-83
2023/03/29 00:46:15;;;;;;;7.32;4.90;;;5.70;99.90;;;;;;5035215;28;20115;-82
2023/03/29 00:48:41;;;;;;;9.35;4.53;;;5.70;99.90;;;;;;5023364;28;20449;-82
2023/03/29 00:51:13;;;;;;;9.35;5.07;;;5.70;99.90;;;;;;5016266;28;20237;-82
2023/03/29 00:53:45;;;;;;;8.05;5.10;;;5.70;99.90;;;;;;5027418;28;20048;-83
2023/03/29 00:56:16;;;;;;;7.50;4.57;;;5.60;99.90;;;;;;5012631;28;20088;-83
2023/03/29 00:58:54;;;;;;;10.45;4.75;;;5.60;99.90;;;;;;5042884;28;20453;-83
2023/03/29 01:01:32;;;;;;;9.57;4.88;;;5.60;99.90;;;;;;5003094;28;20124;-84
2023/03/29 01:04:36;;;;;;;8.80;4.85;;;5.60;99.90;;;;;;5008243;28;20123;-84
2023/03/29 01:07:17;;;;;;;10.13;4.72;;;5.60;99.90;;;;;;5012480;28;20470;-83
2023/03/29 01:09:46;;;;;;;8.50;4.72;;;5.60;99.90;;;;;;5017482;28;20056;-84
2023/03/29 01:12:21;;;;;;;10.43;4.97;;;5.60;99.90;;;;;;5027434;28;20049;-84
2023/03/29 01:15:00;;;;;;;9.65;4.95;;;5.60;99.90;;;;;;5026356;28;20122;-83
2023/03/29 01:17:30;;;;;;;10.57;4.60;;;5.50;99.90;;;;;;5013264;28;20041;-83
2023/03/29 01:20:08;;;;;;;8.07;4.18;;;5.60;99.90;;;;;;5019671;28;20044;-83
2023/03/29 01:22:50;;;;;;;10.40;4.40;;;5.50;99.90;;;;;;5026075;28;20080;-83
2023/03/29 01:25:44;;;;;;;10.95;4.75;;;5.50;99.90;;;;;;5020044;28;20042;-83
2023/03/29 01:28:12;;;;;;;;;;;5.50;99.90;;;;;;5008530;28;20566;-83
2023/03/29 01:30:58;;;;;;;7.30;3.67;;;5.50;99.90;;;;;;5025256;28;20299;-84
2023/03/29 01:33:30;;;;;;;7.90;4.13;;;5.60;99.90;;;;;;5025182;28;20081;-85
2023/03/29 01:36:03;;;;;;;8.30;4.22;;;5.60;99.90;;;;;;5047514;28;20046;-84
2023/03/29 01:38:55;;;;;;;8.85;4.00;;;5.60;99.90;;;;;;4990806;28;20081;-84
2023/03/29 01:41:29;;;;;;;6.53;4.30;;;5.60;99.90;;;;;;5025040;28;20041;-83
2023/03/29 01:44:10;;;;;;;8.82;4.00;;;5.50;99.90;;;;;;5017389;28;20038;-84
2023/03/29 01:46:58;;;;;;;8.38;4.18;;;5.60;99.90;;;;;;5040916;28;20048;-85
2023/03/29 01:49:33;;;;;;;6.38;3.60;;;5.60;99.90;;;;;;5014143;28;20040;-84
2023/03/29 01:52:06;;;;;;;7.70;3.65;;;5.50;99.90;;;;;;5024610;28;20052;-84
2023/03/29 01:54:35;;;;;;;6.88;3.35;;;5.60;99.90;;;;;;5026100;28;20150;-85
2023/03/29 01:57:04;;;;;;;5.18;3.25;;;5.50;99.90;;;;;;5025068;28;20096;-82
2023/03/29 01:59:33;;;;;;;8.60;3.50;;;5.60;99.90;;;;;;5003348;28;20050;-87
2023/03/29 02:02:01;;;;;;;9.70;4.13;;;5.60;99.90;;;;;;5010069;28;20061;-85
2023/03/29 02:04:34;;;;;;;8.40;3.40;;;5.50;99.90;;;;;;5021455;28;20045;-85
2023/03/29 02:07:01;;;;;;;7.38;3.47;;;5.60;99.90;;;;;;5020982;28;20595;-86
2023/03/29 02:09:29;;;;;;;7.93;3.15;;;5.50;99.90;;;;;;5006595;28;20517;-85
2023/03/29 02:11:58;;;;;;;10.00;3.42;;;5.50;99.90;;;;;;5027438;28;20040;-85
2023/03/29 02:14:25;;;;;;;6.75;3.17;;;5.60;99.90;;;;;;5020057;28;20176;-84
2023/03/29 02:16:50;;;;;;;7.68;3.53;;;5.60;99.90;;;;;;5005565;28;20034;-85
2023/03/29 02:19:18;;;;;;;6.90;3.40;;;5.60;99.90;;;;;;5021680;28;20370;-85
2023/03/29 02:21:50;;;;;;;7.43;3.30;;;5.60;99.90;;;;;;5019891;28;20597;-86
2023/03/29 02:24:17;;;;;;;7.85;3.42;;;5.60;99.90;;;;;;5041241;28;21406;-86
2023/03/29 02:26:43;;;;;;;7.25;3.50;;;5.60;99.90;;;;;;5012326;28;20137;-86
2023/03/29 02:29:09;;;;;;;5.40;3.08;;;5.60;99.90;;;;;;5018431;28;20544;-86
2023/03/29 02:31:48;;;;;;;5.90;2.83;;;5.60;99.90;;;;;;5022008;28;20045;-87
2023/03/29 02:34:30;;;;;;;5.35;2.90;;;5.60;99.90;;;;;;5023670;28;20054;-86
2023/03/29 02:37:05;;;;;;;6.40;3.00;;;5.60;99.90;;;;;;5052687;28;20044;-85
2023/03/29 02:39:33;;;;;;;9.45;3.63;;;5.60;99.90;;;;;;5009209;28;20311;-85
2023/03/29 02:42:01;;;;;;;7.75;3.50;;;5.60;99.90;;;;;;5020376;28;20187;-86
2023/03/29 02:44:30;;;;;;;5.03;3.30;;;5.60;99.90;;;;;;5023123;28;20056;-86
2023/03/29 02:47:00;;;;;;;7.40;3.08;;;5.50;99.90;;;;;;5043913;28;20147;-86
2023/03/29 02:49:26;;;;;;;8.60;3.97;;;5.60;99.90;;;;;;5023281;28;20046;-85
2023/03/29 02:51:56;;;;;;;7.95;3.33;;;5.60;99.90;;;;;;5022599;28;20041;-87
2023/03/29 02:54:28;;;;;;;6.63;3.30;;;5.60;99.90;;;;;;5018116;28;20557;-84
2023/03/29 02:57:00;;;;;;;11.85;3.60;;;5.60;99.90;;;;;;5012318;28;20171;-85
2023/03/29 02:59:28;;;;;;;10.18;3.70;;;5.60;99.90;;;;;;5008610;28;20508;-86
2023/03/29 03:01:54;;;;;;;9.18;3.78;;;5.60;99.90;;;;;;5009312;28;20212;-85
2023/03/29 03:04:20;;;;;;;7.07;3.75;;;5.60;99.90;;;;;;5018376;28;20538;-85
2023/03/29 03:06:47;;;;;;;8.23;3.67;;;5.60;99.90;;;;;;5025660;28;20049;-85
2023/03/29 03:09:13;;;;;;;6.13;3.63;;;5.60;99.90;;;;;;5022978;28;20090;-84
2023/03/29 03:11:39;;;;;;;6.00;3.13;;;5.60;99.90;;;;;;5020066;28;20468;-84
2023/03/29 03:14:06;;;;;;;7.85;3.50;;;5.60;99.90;;;;;;4994552;28;20073;-84
2023/03/29 03:16:32;;;;;;;6.68;3.63;;;5.60;99.90;;;;;;5006363;28;20453;-86
2023/03/29 03:18:57;;;;;;;6.93;3.30;;;5.60;99.90;;;;;;5003327;28;20072;-85
2023/03/29 03:21:24;;;;;;;14.73;4.20;;;5.60;99.90;;;;;;5013987;28;20052;-85
2023/03/29 03:23:50;;;;;;;6.22;3.53;;;5.60;99.90;;;;;;5008666;28;20482;-85
2023/03/29 03:26:17;;;;;;;7.05;3.22;;;5.60;99.90;;;;;;4986889;28;20120;-85
2023/03/29 03:28:44;;;;;;;6.10;3.67;;;5.60;99.90;;;;;;4987565;28;20039;-85
2023/03/29 03:31:12;;;;;;;9.13;4.03;;;5.60;99.90;;;;;;4994861;28;20045;-85
2023/03/29 03:33:39;;;;;;;8.35;4.47;;;5.60;99.90;;;;;;4986806;28;20502;-86
2023/03/29 03:36:06;;;;;;;9.75;4.13;;;5.60;99.90;;;;;;4990135;28;20045;-86
2023/03/29 03:38:32;;;;;;;10.43;3.78;;;5.60;99.90;;;;;;4987653;28;20038;-86
2023/03/29 03:40:59;;;;;;;13.00;4.57;;;5.60;99.90;;;;;;4990023;28;20060;-86
2023/03/29 03:43:27;;;;;;;9.32;3.90;;;5.60;99.90;;;;;;4990098;28;20074;-86
2023/03/29 03:45:53;;;;;;;6.55;3.75;;;5.60;99.90;;;;;;5007494;28;20046;-86
2023/03/29 03:48:19;;;;;;;6.72;4.38;;;5.60;99.90;;;;;;4975096;28;20073;-86
2023/03/29 03:50:56;;;;;;;6.25;3.90;;;5.60;99.90;;;;;;4995078;28;20065;-86
2023/03/29 03:53:26;;;;;;;6.68;4.00;;;5.60;99.90;;;;;;4991496;28;20125;-86
2023/03/29 03:55:55;;;;;;;6.30;3.72;;;5.60;99.90;;;;;;4990441;28;20501;-86
2023/03/29 03:58:24;;;;;;;10.65;4.00;;;5.60;99.90;;;;;;4993386;28;20500;-86
2023/03/29 04:00:50;;;;;;;7.82;4.20;;;5.70;99.90;;;;;;4968478;28;20049;-86
2023/03/29 04:03:17;;;;;;;8.00;4.68;;;5.70;99.90;;;;;;4998129;28;20419;-87
2023/03/29 04:05:44;;;;;;;8.05;4.70;;;5.70;99.90;;;;;;5004489;28;20045;-87
2023/03/29 04:08:11;;;;;;;7.50;4.25;;;5.70;99.90;;;;;;5026156;28;20080;-84
2023/03/29 04:10:38;;;;;;;8.98;4.25;;;5.70;99.90;;;;;;4992110;28;20053;-87
2023/03/29 04:13:04;;;;;;;6.50;4.10;;;5.70;99.90;;;;;;4979664;28;20474;-86
2023/03/29 04:15:31;;;;;;;11.30;4.47;;;5.70;99.90;;;;;;5018512;28;20472;-87
2023/03/29 04:17:58;;;;;;;7.32;4.32;;;5.70;99.90;;;;;;5019291;28;20037;-86
2023/03/29 04:20:25;;;;;;;10.23;4.38;;;5.70;99.90;;;;;;5018621;28;20033;-86
2023/03/29 04:22:54;;;;;;;8.20;4.57;;;5.70;99.90;;;;;;5021459;28;20063;-85
2023/03/29 04:25:21;;;;;;;8.88;4.57;;;5.70;99.90;;;;;;5007733;28;20045;-86
2023/03/29 04:27:48;;;;;;;10.13;4.40;;;5.70;99.90;;;;;;5041876;28;20046;-85
2023/03/29 04:30:14;;;;;;;10.85;5.20;;;5.70;99.90;;;;;;5007937;28;20050;-85
2023/03/29 04:32:39;;;;;;;9.73;5.28;;;5.70;99.90;;;;;;5028482;28;20034;-85
2023/03/29 04:35:05;;;;;;;9.02;4.53;;;5.70;99.90;;;;;;5023324;28;20068;-85
2023/03/29 04:37:34;;;;;;;7.90;4.43;;;5.70;99.90;;;;;;5022728;28;20050;-86
2023/03/29 04:40:01;;;;;;;7.35;4.47;;;5.70;99.90;;;;;;5027749;28;20060;-86
2023/03/29 04:42:26;;;;;;;10.48;5.60;;;5.70;99.90;;;;;;5027425;28;22206;-86
2023/03/29 04:44:53;;;;;;;7.55;4.50;;;5.70;99.90;;;;;;5028903;28;20049;-86
2023/03/29 04:47:20;;;;;;;9.85;5.40;;;5.70;99.90;;;;;;5043414;28;20046;-86
2023/03/29 04:49:46;;;;;;;7.97;5.53;;;5.80;99.90;;;;;;5028782;28;20459;-86
2023/03/29 04:52:12;;;;;;;11.80;5.45;;;5.70;99.90;;;;;;5012355;28;20037;-86
2023/03/29 04:54:38;;;;;;;12.85;5.85;;;5.80;99.90;;;;;;5029868;28;20053;-87
2023/03/29 04:57:05;;;;;;;9.30;6.22;;;5.80;99.90;;;;;;5011816;28;20380;-86
2023/03/29 04:59:31;;;;;;;12.48;6.60;;;5.80;99.90;;;;;;5014917;28;20046;-88
2023/03/29 05:01:56;;;;;;;12.63;6.28;;;5.80;99.90;;;;;;5008352;28;20045;-87
2023/03/29 05:04:23;;;;;;;14.13;7.57;;;5.80;99.90;;;;;;5042330;28;20041;-87
2023/03/29 05:06:49;;;;;;;12.13;6.55;;;5.90;99.90;;;;;;5011524;28;20068;-88
2023/03/29 05:09:15;;;;;;;11.30;7.43;;;5.90;99.90;;;;;;5016394;28;20073;-88
2023/03/29 05:11:41;;;;;;;13.00;8.20;;;5.90;99.90;;;;;;5010443;28;20037;-87
2023/03/29 05:14:08;;;;;;;13.77;7.90;;;5.90;99.90;;;;;;5033500;28;20143;-85
2023/03/29 05:16:34;;;;;;;15.63;7.93;;;5.90;99.90;;;;;;5035343;28;20038;-85
2023/03/29 05:19:00;;;;;;;14.25;7.95;;;5.90;99.90;;;;;;5004383;28;20140;-88
2023/03/29 05:21:27;;;;;;;13.40;9.40;;;5.90;99.90;;;;;;5024120;28;20038;-85
2023/03/29 05:23:53;;;;;;;17.70;9.38;;;5.90;99.90;;;;;;5021837;28;20042;-85
2023/03/29 05:26:21;;;;;;;13.50;8.95;;;5.90;99.90;;;;;;5022021;28;20107;-81
2023/03/29 05:28:48;;;;;;;17.48;10.27;;;5.90;99.90;;;;;;5013326;28;20099;-81
2023/03/29 05:31:13;;;;;;;16.92;9.70;;;5.90;99.90;;;;;;5013363;28;20030;-80
2023/03/29 05:33:39;;;;;;;18.45;11.00;;;5.90;99.90;;;;;;5018316;28;20543;-79
2023/03/29 05:36:07;;;;;;;24.38;11.23;;;5.90;99.90;;;;;;5017015;28;20109;-80
2023/03/29 05:38:33;;;;;;;18.50;10.93;;;5.90;99.90;;;;;;5062263;28;20050;-81
2023/03/29 05:40:59;;;;;;;21.60;11.38;;;5.90;99.90;;;;;;5018052;28;20116;-81
2023/03/29 05:43:25;;;;;;;18.38;10.57;;;5.90;99.90;;;;;;5040080;28;20214;-79
2023/03/29 05:45:52;;;;;;;19.55;11.55;;;5.90;99.90;;;;;;5033545;28;20135;-76
2023/03/29 05:48:19;;;;;;;26.45;12.20;;;5.90;99.90;;;;;;5015762;28;20072;-76
2023/03/29 05:50:55;;;;;;;23.60;11.52;;;5.90;99.90;;;;;;5021091;28;20050;-76
2023/03/29 05:53:22;;;;;;;24.00;12.73;;;5.90;99.90;;;;;;4996865;28;20990;-77
2023/03/29 05:55:49;;;;;;;21.75;11.68;;;5.90;99.90;;;;;;5009799;28;20042;-77
2023/03/29 05:58:16;;;;;;;19.33;11.30;;;6.00;99.90;;;;;;5016661;28;20057;-77
2023/03/29 06:00:42;;;;;;;21.70;12.27;;;5.90;99.90;;;;;;5008928;28;20738;-78
2023/03/29 06:03:17;;;;;;;22.55;11.98;;;5.90;99.90;;;;;;5015103;28;20045;-77
2023/03/29 06:05:47;;;;;;;17.20;11.93;;;6.00;99.90;;;;;;5012695;28;20052;-78
2023/03/29 06:08:14;;;;;;;20.27;12.50;;;6.00;99.90;;;;;;5023747;28;20045;-76
2023/03/29 06:10:40;;;;;;;20.98;12.90;;;6.00;99.90;;;;;;5013626;28;20042;-78
2023/03/29 06:13:06;;;;;;;21.88;12.27;;;6.00;99.90;;;;;;5005362;28;20033;-77
2023/03/29 06:15:33;;;;;;;21.17;11.68;;;6.10;99.90;;;;;;4990591;28;20329;-77
2023/03/29 06:17:59;;;;;;;20.58;11.90;;;6.10;99.90;;;;;;4998060;28;20097;-78
2023/03/29 06:20:25;;;;;;;18.02;11.25;;;6.20;99.90;;;;;;4992529;28;20495;-77
2023/03/29 06:22:54;;;;;;;19.90;11.48;;;6.20;99.90;;;;;;4992957;28;20046;-77
2023/03/29 06:25:20;;;;;;;18.35;11.50;;;6.30;99.90;;;;;;4998876;28;20052;-77
2023/03/29 06:27:46;;;;;;;20.85;12.32;;;6.30;99.90;;;;;;5006124;28;20046;-77
2023/03/29 06:30:14;;;;;;;19.05;11.57;;;6.30;99.90;;;;;;4989536;28;20081;-76
2023/03/29 06:32:40;;;;;;;21.00;12.18;;;6.40;99.90;;;;;;4990641;28;20039;-78
2023/03/29 06:35:07;;;;;;;17.77;10.98;;;6.30;99.90;;;;;;4980632;28;20527;-77
2023/03/29 06:37:32;;;;;;;17.83;11.65;;;6.30;99.90;;;;;;4993123;28;20050;-77
2023/03/29 06:39:58;;;;;;;17.25;10.50;;;6.40;99.90;;;;;;4995620;28;20421;-78
2023/03/29 06:42:24;;;;;;;19.10;10.85;;;6.50;99.90;;;;;;4994455;28;20046;-78
2023/03/29 06:44:49;;;;;;;19.00;11.18;;;6.50;99.90;;;;;;4998435;28;20054;-77
2023/03/29 06:47:19;;;;;;;13.57;9.88;;;6.60;99.90;;;;;;4997056;28;20068;-78
2023/03/29 06:49:44;;;;;;;20.80;10.70;;;6.60;99.90;;;;;;4985318;28;20039;-78
2023/03/29 06:52:10;;;;;;;16.23;10.50;;;6.60;99.90;;;;;;4987430;28;20038;-77
2023/03/29 06:54:36;;;;;;;20.15;10.32;;;6.60;99.90;;;;;;4979659;28;20295;-80
2023/03/29 06:57:06;;;;;;;22.45;11.60;;;6.60;99.90;;;;;;4981581;28;20045;-78
2023/03/29 06:59:33;;;;;;;15.95;10.38;;;6.70;99.90;;;;;;4992900;28;20122;-79
2023/03/29 07:01:59;;;;;;;17.30;10.48;;;6.80;99.90;;;;;;4987307;28;20134;-79
2023/03/29 07:04:24;;;;;;;17.15;10.18;;;6.70;99.90;;;;;;4988152;28;20046;-79
2023/03/29 07:07:00;;;;;;;13.90;9.60;;;6.80;99.90;;;;;;4985769;28;20168;-78
2023/03/29 07:09:30;;;;;;;15.95;9.43;;;6.90;99.90;;;;;;5002330;28;20393;-78
2023/03/29 07:11:59;;;;;;;16.90;10.20;;;6.90;99.90;;;;;;5036010;28;20029;-78
2023/03/29 07:14:27;;;;;;;17.83;10.32;;;6.90;99.90;;;;;;5010451;28;20045;-78
2023/03/29 07:16:59;;;;;;;15.18;9.75;;;7.00;99.90;;;;;;5011716;28;20091;-79
2023/03/29 07:19:26;;;;;;;16.45;9.93;;;7.00;99.90;;;;;;5012221;28;20049;-78
2023/03/29 07:21:53;;;;;;;15.30;10.25;;;7.10;99.90;;;;;;5006679;28;20422;-77
2023/03/29 07:24:19;;;;;;;18.92;10.65;;;7.20;99.90;;;;;;5011997;28;20518;-79
2023/03/29 07:26:47;;;;;;;23.05;10.38;;;7.20;99.90;;;;;;5011007;28;20049;-78
2023/03/29 07:29:13;;;;;;;17.40;10.98;;;7.20;99.90;;;;;;5003562;28;20315;-79
2023/03/29 07:31:40;;;;;;;15.75;10.50;;;7.30;99.90;;;;;;5010467;28;20209;-78
2023/03/29 07:34:09;;;;;;;18.30;10.60;;;7.40;99.90;;;;;;5042843;28;20041;-77
2023/03/29 07:36:46;;;;;;;16.25;10.57;;;7.40;99.90;;;;;;5012682;28;20049;-79
2023/03/29 07:39:12;;;;;;;17.60;10.57;;;7.50;99.90;;;;;;5010369;28;20046;-79
2023/03/29 07:41:38;;;;;;;18.02;10.20;;;7.50;99.90;;;;;;5046471;28;20056;-78
2023/03/29 07:44:08;;;;;;;14.95;9.88;;;7.60;99.90;;;;;;5006531;28;20436;-78
2023/03/29 07:46:36;;;;;;;15.82;9.18;;;7.60;99.90;;;;;;4987646;28;20095;-78
2023/03/29 07:49:02;;;;;;;18.23;10.40;;;7.60;99.90;;;;;;5018131;28;20425;-78
2023/03/29 07:51:28;;;;;;;17.73;10.68;;;7.70;99.90;;;;;;5009969;28;20432;-78
2023/03/29 07:53:54;;;;;;;16.17;10.00;;;7.70;99.90;;;;;;5005213;28;20258;-78
2023/03/29 07:56:20;;;;;;;19.70;11.13;;;7.70;99.90;;;;;;5019712;28;20045;-78
2023/03/29 07:58:45;;;;;;;21.83;11.88;;;7.70;99.90;;;;;;5011455;28;20073;-78
2023/03/29 08:01:14;;;;;;;19.20;11.00;;;7.70;99.90;;;;;;5010142;28;20045;-79
2023/03/29 08:03:41;;;;;;;22.02;12.10;;;7.80;99.90;;;;;;5015976;28;20060;-78
2023/03/29 08:06:07;;;;;;;18.95;11.38;;;7.80;99.90;;;;;;5019093;28;20037;-78
2023/03/29 08:08:33;;;;;;;19.85;11.05;;;7.80;99.90;;;;;;5012997;28;20062;-79
2023/03/29 08:10:58;;;;;;;17.23;10.95;;;7.80;99.90;;;;;;5015425;28;20050;-78
2023/03/29 08:13:24;;;;;;;21.17;10.77;;;7.90;99.90;;;;;;5004808;28;20045;-78
2023/03/29 08:15:50;;;;;;;17.33;10.18;;;7.90;99.90;;;;;;5012097;28;20047;-79
2023/03/29 08:18:16;;;;;;;21.70;11.60;;;7.90;99.90;;;;;;5010612;28;20123;-79
2023/03/29 08:20:42;;;;;;;17.17;10.18;;;7.90;99.90;;;;;;5006972;28;20042;-79
2023/03/29 08:23:07;;;;;;;15.77;10.05;;;8.10;99.90;;;;;;5026933;28;20048;-79
2023/03/29 08:25:34;;;;;;;15.00;10.20;;;8.10;99.90;;;;;;5016684;28;20045;-79
2023/03/29 08:28:00;;;;;;;16.77;9.63;;;8.20;99.90;;;;;;5038823;28;20055;-79
2023/03/29 08:30:26;;;;;;;15.85;8.57;;;8.20;99.90;;;;;;5005365;28;20137;-79
2023/03/29 08:32:57;;;;;;;17.38;9.93;;;8.20;99.90;;;;;;5010336;28;20053;-78
2023/03/29 08:35:26;;;;;;;12.38;8.98;;;8.20;99.90;;;;;;5008327;28;20051;-79
2023/03/29 08:37:52;;;;;;;19.73;10.05;;;8.30;99.90;;;;;;5005522;28;20052;-79
2023/03/29 08:40:25;;;;;;;14.70;9.85;;;8.30;99.90;;;;;;5040425;28;20045;-80
2023/03/29 08:43:06;;;;;;;15.90;9.25;;;8.40;99.90;;;;;;5008992;28;20055;-79
2023/03/29 08:46:03;;;;;;;15.80;9.85;;;8.40;99.90;;;;;;5008104;28;20048;-79
2023/03/29 08:48:34;;;;;;;17.02;9.60;;;8.50;99.90;;;;;;5008994;28;20034;-79
2023/03/29 08:51:18;;;;;;;17.05;9.25;;;8.50;99.90;;;;;;5011708;28;20071;-80
2023/03/29 08:53:58;;;;;;;16.80;9.77;;;8.60;99.90;;;;;;5036207;28;20061;-80
2023/03/29 08:56:28;;;;;;;13.63;8.52;;;8.60;99.90;;;;;;5000770;28;20065;-79
2023/03/29 08:58:55;;;;;;;15.45;9.60;;;8.70;99.90;;;;;;4991032;28;20084;-79
2023/03/29 09:01:22;;;;;;;17.45;9.48;;;8.80;99.90;;;;;;4987466;28;20050;-79
2023/03/29 09:03:52;;;;;;;19.02;9.80;;;8.80;99.90;;;;;;4994170;28;20100;-79
2023/03/29 09:06:20;;;;;;;17.13;9.13;;;8.90;99.90;;;;;;4976487;28;20062;-79
2023/03/29 09:08:48;;;;;;;17.02;9.80;;;8.90;99.90;;;;;;4987939;28;20546;-79
2023/03/29 09:11:23;;;;;;;18.52;9.70;;;9.00;99.90;;;;;;4992652;28;20045;-78
2023/03/29 09:13:55;;;;;;;13.20;9.10;;;9.10;99.90;;;;;;4976966;28;20413;-78
2023/03/29 09:16:39;;;;;;;14.63;9.48;;;9.10;99.90;;;;;;4999997;28;20076;-79
2023/03/29 09:26:51;;;;;;;17.85;9.88;;;9.20;99.90;;;;;;4990386;28;20125;-80
2023/03/29 09:29:42;;;;;;;23.20;11.57;;;9.20;99.90;;;;;;4991762;28;20049;-79
2023/03/29 09:32:30;;;;;;;20.92;11.13;;;9.30;99.90;;;;;;4998191;28;20062;-80
2023/03/29 09:35:26;;;;;;;17.05;10.13;;;9.40;99.90;;;;;;4991568;28;20042;-79
2023/03/29 09:37:53;;;;;;;17.70;9.95;;;9.30;99.90;;;;;;5006277;28;20096;-79
2023/03/29 09:40:44;;;;;;;21.17;11.05;;;9.30;99.90;;;;;;5004023;28;20493;-79
2023/03/29 09:43:14;;;;;;;19.90;10.77;;;9.40;99.90;;;;;;5004576;28;20149;-80
2023/03/29 09:45:41;;;;;;;16.88;10.27;;;9.40;99.90;;;;;;5010533;28;20130;-78
2023/03/29 09:48:12;;;;;;;21.73;10.18;;;9.40;99.90;;;;;;5002686;28;20121;-78
2023/03/29 09:50:45;;;;;;;20.67;10.88;;;9.50;99.90;;;;;;5011316;28;20041;-79
2023/03/29 09:53:13;;;;;;;18.70;11.45;;;9.50;99.90;;;;;;5011157;28;20100;-79
2023/03/29 09:55:39;;;;;;;18.73;11.55;;;9.50;99.90;;;;;;4984625;28;20050;-77
2023/03/29 09:58:14;;;;;;;21.83;11.93;;;9.60;99.90;;;;;;4984532;28;20038;-79
2023/03/29 10:00:41;;;;;;;23.73;11.93;;;9.70;99.90;;;;;;4998022;28;20054;-79
2023/03/29 10:03:08;;;;;;;23.35;12.85;;;9.70;99.90;;;;;;5008295;28;20072;-79
2023/03/29 10:05:38;;;;;;;19.48;12.18;;;9.80;99.90;;;;;;5008643;28;20049;-79
2023/03/29 10:08:17;;;;;;;24.95;13.00;;;9.90;99.90;;;;;;5009821;28;20045;-78
2023/03/29 10:10:43;;;;;;;22.27;12.75;;;10.00;99.90;;;;;;5006126;28;20042;-79
2023/03/29 10:13:20;;;;;;;29.23;14.40;;;10.00;99.90;;;;;;5017453;28;20397;-79
2023/03/29 10:16:06;;;;;;;25.80;12.35;;;10.20;99.90;;;;;;5007561;28;20551;-79
2023/03/29 10:18:38;;;;;;;29.88;12.57;;;10.20;99.90;;;;;;5012243;28;20096;-79
2023/03/29 10:21:04;;;;;;;25.48;13.63;;;10.30;99.90;;;;;;5008695;28;20066;-79
2023/03/29 10:23:33;;;;;;;27.00;14.32;;;10.40;99.90;;;;;;4989359;28;20045;-79
2023/03/29 10:26:00;;;;;;;23.00;12.98;;;10.50;99.90;;;;;;5007495;28;20273;-80
2023/03/29 10:28:27;;;;;;;26.33;13.90;;;10.50;99.90;;;;;;5007912;28;20054;-80
2023/03/29 10:30:55;;;;;;;27.23;15.57;;;10.60;99.90;;;;;;4993948;28;20046;-80
2023/03/29 10:33:27;;;;;;;31.13;15.73;;;10.60;99.90;;;;;;5001013;28;20045;-80
2023/03/29 10:35:56;;;;;;;22.08;15.60;;;10.60;99.90;;;;;;5007112;28;20104;-80
2023/03/29 10:38:26;;;;;;;27.60;16.42;;;10.70;99.90;;;;;;5015375;28;20549;-80
2023/03/29 10:40:54;;;;;;;27.20;15.85;;;10.80;99.90;;;;;;5001392;28;20427;-80
2023/03/29 10:43:31;;;;;;;29.55;18.90;;;10.80;99.90;;;;;;4999203;28;20100;-80
2023/03/29 10:46:07;;;;;;;29.27;16.80;;;10.90;99.90;;;;;;4995521;28;20520;-80
2023/03/29 10:48:34;;;;;;;25.15;16.05;;;11.00;99.90;;;;;;4984647;28;20049;-79
2023/03/29 10:51:01;;;;;;;26.30;16.27;;;11.00;99.90;;;;;;5003160;28;20091;-79
2023/03/29 10:53:31;;;;;;;31.45;18.25;;;11.00;99.90;;;;;;5008949;28;20099;-79
2023/03/29 10:56:21;;;;;;;29.40;17.08;;;11.10;99.90;;;;;;4992671;28;20438;-79
2023/03/29 10:59:14;;;;;;;30.27;16.40;;;11.10;99.90;;;;;;4993581;28;20042;-79
2023/03/29 11:01:52;;;;;;;30.05;16.00;;;11.20;99.90;;;;;;5000803;28;20041;-79
2023/03/29 11:04:24;;;;;;;32.08;18.27;;;11.30;99.90;;;;;;5002716;28;20065;-80
2023/03/29 11:07:10;;;;;;;28.60;17.75;;;11.30;99.90;;;;;;5008299;28;20054;-80
2023/03/29 11:10:17;;;;;;;27.20;17.13;;;11.50;99.90;;;;;;5001015;28;20572;-81
2023/03/29 11:13:14;;;;;;;28.20;16.67;;;11.50;99.90;;;;;;4970831;28;20460;-80
2023/03/29 11:15:46;;;;;;;29.48;16.33;;;11.60;99.90;;;;;;5000232;28;20042;-80
2023/03/29 11:18:45;;;;;;;30.10;16.98;;;11.60;99.90;;;;;;5010372;28;20045;-80
2023/03/29 11:21:38;;;;;;;33.60;17.33;;;11.70;99.90;;;;;;5003231;28;20099;-81
2023/03/29 11:24:28;;;;;;;29.05;16.90;;;11.70;99.90;;;;;;5004667;28;20046;-80
2023/03/29 11:27:12;;;;;;;26.35;14.90;;;11.70;99.90;;;;;;5010082;28;20050;-81
2023/03/29 11:30:05;;;;;;;24.95;15.75;;;11.70;99.90;;;;;;4984584;28;20042;-80
2023/03/29 11:33:10;;;;;;;23.40;16.27;;;11.70;99.90;;;;;;5004480;28;20057;-80
2023/03/29 11:36:01;;;;;;;27.20;17.02;;;11.70;99.90;;;;;;5015084;28;20053;-79
2023/03/29 11:38:38;;;;;;;24.20;14.15;;;11.70;99.90;;;;;;5003702;28;20049;-79
2023/03/29 11:41:07;;;;;;;31.92;17.50;;;11.70;99.90;;;;;;4998195;28;20104;-79
2023/03/29 11:43:45;;;;;;;28.30;18.27;;;11.70;99.90;;;;;;5009637;28;20049;-79
2023/03/29 11:46:28;;;;;;;30.92;17.08;;;11.90;99.90;;;;;;5007360;28;20046;-80
2023/03/29 11:49:04;;;;;;;27.48;15.77;;;12.00;99.90;;;;;;5011332;28;20037;-79
2023/03/29 11:51:55;;;;;;;26.90;14.68;;;12.10;99.90;;;;;;5007212;28;20085;-79
2023/03/29 11:54:34;;;;;;;23.23;14.52;;;12.20;99.90;;;;;;4999785;28;20533;-79
2023/03/29 11:57:13;;;;;;;24.58;15.18;;;12.30;99.90;;;;;;4995297;28;20042;-80
2023/03/29 11:59:42;;;;;;;31.52;17.77;;;12.30;99.90;;;;;;5003246;28;20095;-80
2023/03/29 12:02:27;;;;;;;21.73;13.23;;;12.20;99.90;;;;;;5006618;28;20372;-79
2023/03/29 12:04:57;;;;;;;29.42;16.75;;;12.10;99.90;;;;;;5008979;28;20046;-79
2023/03/29 12:07:32;;;;;;;28.45;15.93;;;12.10;99.90;;;;;;5008167;28;20037;-80
2023/03/29 12:10:15;;;;;;;25.33;15.35;;;12.10;99.90;;;;;;4998516;28;20489;-86
2023/03/29 12:12:45;;;;;;;26.35;16.65;;;12.20;99.90;;;;;;5002325;28;20084;-80
2023/03/29 12:15:25;;;;;;;28.35;18.08;;;12.10;99.90;;;;;;5002422;28;20049;-80
2023/03/29 12:18:18;;;;;;;26.30;16.15;;;12.20;99.90;;;;;;5006788;28;20478;-80
2023/03/29 12:20:50;;;;;;;26.52;16.67;;;12.10;99.90;;;;;;5007574;28;20046;-80
2023/03/29 12:23:17;;;;;;;28.55;17.70;;;12.10;99.90;;;;;;5008578;28;20046;-79
2023/03/29 12:26:04;;;;;;;25.55;18.92;;;12.10;99.90;;;;;;5001515;28;20444;-80
2023/03/29 12:28:36;;;;;;;27.92;16.55;;;12.20;99.90;;;;;;5000328;28;20052;-80
2023/03/29 12:31:08;;;;;;;27.17;16.98;;;12.20;99.90;;;;;;5003041;28;20053;-79
2023/03/29 12:33:53;;;;;;;23.00;16.23;;;12.20;99.90;;;;;;5007300;28;20065;-79
2023/03/29 12:36:44;;;;;;;30.35;18.02;;;12.30;99.90;;;;;;5004837;28;20321;-79
2023/03/29 12:39:19;;;;;;;27.63;16.70;;;12.30;99.90;;;;;;5007656;28;20046;-78
2023/03/29 12:41:47;;;;;;;23.45;14.95;;;12.30;99.90;;;;;;5009451;28;20397;-79
2023/03/29 12:44:20;;;;;;;33.00;21.40;;;12.30;99.90;;;;;;5009591;28;20096;-79
2023/03/29 12:46:50;;;;;;;26.27;16.88;;;12.30;99.90;;;;;;5001543;28;20076;-79
2023/03/29 12:49:32;;;;;;;24.52;18.10;;;12.30;99.90;;;;;;5005998;28;20056;-79
2023/03/29 12:52:01;;;;;;;31.40;21.90;;;12.30;99.90;;;;;;4994063;28;20077;-79
2023/03/29 12:54:31;;;;;;;30.42;20.45;;;12.40;99.90;;;;;;5000063;28;20157;-78
2023/03/29 12:57:18;;;;;;;33.53;19.77;;;12.50;99.90;;;;;;5010142;28;20091;-80
2023/03/29 12:59:48;;;;;;;30.90;21.23;;;12.40;99.90;;;;;;5010016;28;20096;-82
2023/03/29 13:02:14;;;;;;;31.52;19.83;;;12.40;99.90;;;;;;4992030;28;20085;-81
2023/03/29 13:04:42;;;;;;;28.27;17.60;;;12.40;99.90;;;;;;5004671;28;20473;-81
2023/03/29 13:07:31;;;;;;;28.35;18.85;;;12.40;99.90;;;;;;4995706;28;20095;-81
2023/03/29 13:10:01;;;;;;;28.00;19.85;;;12.50;99.90;;;;;;4992678;28;20461;-81
2023/03/29 13:12:44;;;;;;;30.35;20.50;;;12.50;99.90;;;;;;5001480;28;20176;-83